Rochelle, IL

10:40 AM CDT en Agosto 22, 2014 (GMT -0500)
WB9NJJ | Change Station
CLOSE
Current Station
Estación meteorológica personal
Location: Rochelle, IL
Altura: 810 ft
Estaciones meteorológicas cercanas

Alt 810 ft 41.94 °N, 89.15 °W | Updated 3 seconds ago

Overcast
Nublado
75.9 ° F
Sensación térmica 77 ° F
N
0.7
Viento Variable Viento desde SO
Gusts 5.4 mph

Hoy
Alta -- | Baja -- ° F
--% Posibilidad de precipitaciones
Ayer
Alta -- | Baja -- ° F
Precip. -- pul
6:11 AM 7:45 PM
Creciente menguante, 8% visible
Presión 29.98 pul
Visibilidad 10.0 Millas
Nubes Nubes dispersas 1100 ft
Muy nublado 2100 ft
Nublado 3000 ft
Índice de calor 77 ° F
Punto de rocío 66 ° F
Humedad 71%
Precipitaciones 0.05 pul
Espesor de la nieve No disponible.
UV 2 de una escala de 12
Polen 5.00 de una escala de 12
Ozono Buena
PM2.5 Buena
Flu Activity No disponible.
METAR KRPJ 221535Z AUTO 22012G19KT 10SM SCT011 BKN021 OVC030 24/22 A2998 RMK AO2 LTG DSNT S AND SW T02380218

More Conditions Fewer Conditions

Presión 29.98 pul
Visibilidad 10.0 Millas
Nubes Nubes dispersas 1100 ft
Muy nublado 2100 ft
Nublado 3000 ft
Índice de calor 77 ° F
Punto de rocío 66 ° F
Humedad 71%
Precipitaciones 0.05 pul
Espesor de la nieve No disponible.
UV 2 de una escala de 12
Polen 5.00 de una escala de 12
Ozono Buena
PM2.5 Buena
Flu Activity No disponible.
METAR KRPJ 221535Z AUTO 22012G19KT 10SM SCT011 BKN021 OVC030 24/22 A2998 RMK AO2 LTG DSNT S AND SW T02380218

More Conditions Fewer Conditions

10-Day Weather Forecast

Almanac

Astronomía

Aug. 22, 2014 Salida Puesta
Hora real 6:11 AM CDT 7:45 PM CDT
Crepúsculo civil 5:42 AM CDT 8:15 PM CDT
Crepúsculo náutico 5:06 AM CDT 8:50 PM CDT
Crepúsculo astronómico 4:28 AM CDT 9:28 PM CDT
Luna 3:32 AM CDT 5:55 PM CDT
Horas de luz 14h 33m
Horas de luz
13h 34m
Tomorrow will be 2m 36s shorter.
Creciente menguante, 8% of the Moon is Illuminated
Hoy
Creciente menguante
Ago 25
Nueva
Sep 2
Cuarto creciente
Sep 8
Luna llena
Sep 15
Cuarto menguante

Extremos de hoy

Máximos del estado Bajos del estado

Community

WunderPhotos

Upload Photos

1,746,188 ¡fotos cargadas!

Nearby

Calidad del aire

  Calidad del aire Índice AQ Contaminante
Ayer Buena
PM2.5
Ayer Buena
OZONE
Real Buena
PM2.5
Real Buena
OZONE
Viernes Moderada
PM2.5
Viernes Moderada
OZONE
Sábado Moderada
PM2.5
Sábado Moderada
OZONE
Domingo Moderada
PM2.5
Domingo Moderada
OZONE

Grosos de nieve

Estación Profundido Altura
No tenemos constancia de nieve nueva.

Actividad de terremotos

Ciudad Distance Mag. Tiempo y dato
No hay informes recientes de la actividad sísmica.
Magnitud mínima muestra es 2,5.

Temperaturas de aguas costeras

Lugar Temperatura
Sin partes meteorológicos de las estaciones

Estaciones meteorológicas cercanas